ハバロフスク の空港の天気 - METARとTAF

ハバロフスク空港 ( UHHH / KHV ) - ロシア ハバロフスク
飛行場実況気象(Metar)
観測時間12/10 15:00 VLAT (12/10 05:00 UTC)
風向・風速南西 5m/s
視程10km以上
天気現象
なし
気温-16℃
湿度50%
気圧1032hPa
METARUHHH 100500Z 23005MPS 200V270 CAVOK M16/M24 Q1032 R23L/090060 NOSIG RMK QFE768/1024
過去の天気等 Google飛行場航空写真 Wunderground天気予報

過去48時間のMETAR

飛行場予報(TAF)
発表時間: 12/10 14:47 VLAT (12/10 04:47 UTC)
予報対象時間: 10日16時 VLAT ~ 11日22時 VLAT
風向・風速南西 3m/s
視程10km以上
なし
10日16時 VLAT ~ 11日10時 VLAT に一時的に
風向・風速西南西 7m/s
全天の4割程度の雲 雲底高度 760m
TAF UHHH 100447Z 1006/1112 23003MPS 9999 NSC
TEMPO 1006/1024 25007MPS SCT025